KCOT/COT METAR and TAF weather

Enter ICAO airport designator
Station Type Date Time Source
KCOT METAR 2020/09/19 01:53 UTC NOAA

KCOT 190153Z AUTO 09005KT 10SM CLR 26/18 A3000 RMK AO2 SLP152 T02610178


Station Type Date Time Source
KCOT Decoded METAR 2020/09/19 01:53 UTC NOAA

COTULLA-LASALLE COUNTY AIRPORT , TX, United States (KCOT) 28-27N 099-13W 140M
Sep 18, 2020 - 09:53 PM EDT / 2020.09.19 0153 UTC
Wind: from the E (090 degrees) at 6 MPH (5 KT):0
Visibility: 10 mile(s):0
Sky conditions: clear
Temperature: 79.0 F (26.1 C)
Dew Point: 64.0 F (17.8 C)
Relative Humidity: 60%
Pressure (altimeter): 30 in. Hg (1015 hPa)
ob: KCOT 190153Z AUTO 09005KT 10SM CLR 26/18 A3000 RMK AO2 SLP152 T02610178
cycle: 2

Station Type Date Time Source
KCOT TAF 2020/09/18 21:39 UTC NOAA

TAF
AMD KCOT 182038Z 1821/1918 04010KT P6SM VCTS SCT035CB BKN250
FM190200 04005KT P6SM SCT035

Example: see airport list